AAL2468 KORF-KCLT
Flight info
| Callsign | AAL2468 |
|---|---|
| Flight time | 0h 59m |
| Altitude | 32000 |
| Route | NUTIY1 NUTIY COUPN CHSLY6 |
| Aircraft | B38M/M-SDE1FGHILORVWXY/HB1 |
Departure
| Time | 2026-05-03 21:05 |
|---|---|
| Airport | Norfolk International Airport (KORF) |
Arrival
| Time | 2026-05-03 22:04 |
|---|---|
| Airport | Charlotte Douglas International Airport (KCLT) |
| Time | Latitude | Longitude | Altitude | Speed | Heading |
|---|---|---|---|---|---|
| 2026-05-03 20:39 | 36.89602 | -76.20232 | 38 ft | 0 kts | 52° |
| 2026-05-03 20:55 | 36.89598 | -76.20238 | 38 ft | 4 kts | 52° |
| 2026-05-03 20:56 | 36.89583 | -76.20264 | 38 ft | 4 kts | 62° |
| 2026-05-03 20:56 | 36.89575 | -76.20292 | 38 ft | 4 kts | 111° |
| 2026-05-03 20:56 | 36.89582 | -76.20304 | 37 ft | 1 kts | 141° |
| 2026-05-03 20:56 | 36.89583 | -76.20306 | 37 ft | 1 kts | 141° |
| 2026-05-03 21:00 | 36.89543 | -76.20260 | 39 ft | 7 kts | 133° |
| 2026-05-03 21:00 | 36.89516 | -76.20218 | 37 ft | 12 kts | 127° |
| 2026-05-03 21:01 | 36.89523 | -76.20152 | 37 ft | 15 kts | 51° |
| 2026-05-03 21:01 | 36.89645 | -76.20028 | 36 ft | 28 kts | 36° |
| 2026-05-03 21:01 | 36.89792 | -76.19883 | 33 ft | 26 kts | 39° |
| 2026-05-03 21:01 | 36.89930 | -76.19748 | 34 ft | 24 kts | 37° |
| 2026-05-03 21:02 | 36.90062 | -76.19624 | 33 ft | 23 kts | 37° |
| 2026-05-03 21:02 | 36.90191 | -76.19518 | 34 ft | 21 kts | 26° |
| 2026-05-03 21:02 | 36.90319 | -76.19421 | 33 ft | 21 kts | 37° |
| 2026-05-03 21:02 | 36.90436 | -76.19311 | 33 ft | 21 kts | 37° |
| 2026-05-03 21:03 | 36.90549 | -76.19203 | 29 ft | 20 kts | 38° |
| 2026-05-03 21:03 | 36.90600 | -76.19063 | 29 ft | 19 kts | 114° |
| 2026-05-03 21:03 | 36.90501 | -76.18984 | 33 ft | 7 kts | 204° |
| 2026-05-03 21:03 | 36.90490 | -76.18995 | 33 ft | 16 kts | 214° |
| 2026-05-03 21:04 | 36.90215 | -76.19257 | 36 ft | 82 kts | 218° |
| 2026-05-03 21:04 | 36.89606 | -76.19840 | 37 ft | 136 kts | 215° |
| 2026-05-03 21:04 | 36.88746 | -76.20697 | 107 ft | 175 kts | 219° |
| 2026-05-03 21:04 | 36.87739 | -76.21655 | 585 ft | 188 kts | 217° |
| 2026-05-03 21:05 | 36.86626 | -76.22685 | 938 ft | 209 kts | 221° |
| 2026-05-03 21:05 | 36.85710 | -76.24105 | 1403 ft | 218 kts | 251° |
| 2026-05-03 21:05 | 36.85701 | -76.26026 | 1640 ft | 235 kts | 293° |
| 2026-05-03 21:05 | 36.86780 | -76.27574 | 2133 ft | 243 kts | 332° |
| 2026-05-03 21:06 | 36.87802 | -76.28132 | 2762 ft | 242 kts | 335° |
| 2026-05-03 21:06 | 36.89226 | -76.29220 | 3620 ft | 240 kts | 321° |
| 2026-05-03 21:06 | 36.90473 | -76.30630 | 4411 ft | 242 kts | 314° |
| 2026-05-03 21:06 | 36.91612 | -76.32191 | 5149 ft | 244 kts | 310° |
| 2026-05-03 21:07 | 36.92698 | -76.33834 | 5915 ft | 246 kts | 308° |
| 2026-05-03 21:07 | 36.93762 | -76.35511 | 6691 ft | 248 kts | 307° |
| 2026-05-03 21:07 | 36.94531 | -76.37438 | 7377 ft | 252 kts | 282° |
| 2026-05-03 21:07 | 36.94680 | -76.39625 | 8130 ft | 254 kts | 272° |
| 2026-05-03 21:08 | 36.94656 | -76.41856 | 8815 ft | 258 kts | 271° |
| 2026-05-03 21:08 | 36.94614 | -76.44118 | 9449 ft | 262 kts | 271° |
| 2026-05-03 21:08 | 36.94581 | -76.46407 | 10132 ft | 264 kts | 271° |
| 2026-05-03 21:08 | 36.94556 | -76.48770 | 10454 ft | 282 kts | 271° |
| 2026-05-03 21:09 | 36.94536 | -76.51311 | 10625 ft | 303 kts | 271° |
| 2026-05-03 21:09 | 36.94326 | -76.54020 | 10818 ft | 324 kts | 259° |
| 2026-05-03 21:09 | 36.93615 | -76.56736 | 11312 ft | 334 kts | 249° |
| 2026-05-03 21:09 | 36.92473 | -76.59296 | 11974 ft | 338 kts | 243° |
| 2026-05-03 21:10 | 36.91235 | -76.61767 | 12644 ft | 341 kts | 242° |
| 2026-05-03 21:10 | 36.89957 | -76.64271 | 13362 ft | 342 kts | 242° |
| 2026-05-03 21:10 | 36.88678 | -76.66784 | 14072 ft | 343 kts | 242° |
| 2026-05-03 21:10 | 36.87400 | -76.69309 | 14770 ft | 345 kts | 242° |
| 2026-05-03 21:11 | 36.86120 | -76.71851 | 15439 ft | 347 kts | 243° |
| 2026-05-03 21:11 | 36.84833 | -76.74416 | 16115 ft | 349 kts | 243° |
| 2026-05-03 21:11 | 36.83540 | -76.76996 | 16797 ft | 351 kts | 243° |
| 2026-05-03 21:11 | 36.82245 | -76.79583 | 17442 ft | 352 kts | 243° |
| 2026-05-03 21:12 | 36.80941 | -76.82188 | 18051 ft | 355 kts | 243° |
| 2026-05-03 21:12 | 36.79627 | -76.84811 | 18660 ft | 357 kts | 243° |
| 2026-05-03 21:12 | 36.78307 | -76.87444 | 19232 ft | 360 kts | 243° |
| 2026-05-03 21:12 | 36.76977 | -76.90100 | 19796 ft | 362 kts | 243° |
| 2026-05-03 21:13 | 36.75639 | -76.92765 | 20379 ft | 363 kts | 243° |
| 2026-05-03 21:13 | 36.74299 | -76.95434 | 20915 ft | 365 kts | 243° |
| 2026-05-03 21:13 | 36.72944 | -76.98130 | 21420 ft | 367 kts | 243° |
| 2026-05-03 21:13 | 36.71583 | -77.00835 | 21917 ft | 370 kts | 244° |
| 2026-05-03 21:14 | 36.70243 | -77.03579 | 22409 ft | 371 kts | 245° |
| 2026-05-03 21:14 | 36.68948 | -77.06355 | 22900 ft | 372 kts | 245° |
| 2026-05-03 21:14 | 36.67679 | -77.09121 | 23358 ft | 373 kts | 246° |
| 2026-05-03 21:14 | 36.66388 | -77.11939 | 23796 ft | 375 kts | 246° |
| 2026-05-03 21:15 | 36.65088 | -77.14767 | 24231 ft | 377 kts | 246° |
| 2026-05-03 21:15 | 36.63780 | -77.17604 | 24670 ft | 378 kts | 246° |
| 2026-05-03 21:15 | 36.62464 | -77.20443 | 25169 ft | 378 kts | 246° |
| 2026-05-03 21:15 | 36.61155 | -77.23259 | 25753 ft | 374 kts | 245° |
| 2026-05-03 21:16 | 36.59859 | -77.26038 | 26452 ft | 368 kts | 245° |
| 2026-05-03 21:16 | 36.58585 | -77.28768 | 27061 ft | 364 kts | 246° |
| 2026-05-03 21:16 | 36.57317 | -77.31486 | 27611 ft | 361 kts | 246° |
| 2026-05-03 21:16 | 36.56066 | -77.34168 | 28180 ft | 357 kts | 246° |
| 2026-05-03 21:17 | 36.54827 | -77.36817 | 28764 ft | 351 kts | 246° |
| 2026-05-03 21:17 | 36.54014 | -77.38553 | 29107 ft | 349 kts | 246° |
| 2026-05-03 21:17 | 36.52389 | -77.42029 | 29735 ft | 347 kts | 246° |
| 2026-05-03 21:17 | 36.51176 | -77.44619 | 30062 ft | 347 kts | 246° |
| 2026-05-03 21:18 | 36.48736 | -77.49836 | 30084 ft | 350 kts | 245° |
| 2026-05-03 21:18 | 36.46296 | -77.55025 | 30094 ft | 347 kts | 245° |
| 2026-05-03 21:19 | 36.43864 | -77.60197 | 30094 ft | 347 kts | 245° |
| 2026-05-03 21:19 | 36.41429 | -77.65368 | 30095 ft | 347 kts | 245° |
| 2026-05-03 21:20 | 36.38995 | -77.70528 | 30093 ft | 347 kts | 245° |
| 2026-05-03 21:20 | 36.36567 | -77.75668 | 30092 ft | 347 kts | 245° |
| 2026-05-03 21:21 | 36.34123 | -77.80831 | 30091 ft | 347 kts | 245° |
| 2026-05-03 21:21 | 36.31671 | -77.86007 | 30094 ft | 348 kts | 245° |
| 2026-05-03 21:22 | 36.29216 | -77.91177 | 30113 ft | 348 kts | 245° |
| 2026-05-03 21:22 | 36.26758 | -77.96349 | 30099 ft | 348 kts | 245° |
| 2026-05-03 21:23 | 36.24299 | -78.01515 | 30098 ft | 348 kts | 245° |
| 2026-05-03 21:23 | 36.21837 | -78.06682 | 30097 ft | 348 kts | 245° |
| 2026-05-03 21:24 | 36.19377 | -78.11833 | 30105 ft | 348 kts | 245° |
| 2026-05-03 21:24 | 36.17292 | -78.17157 | 30112 ft | 341 kts | 255° |
| 2026-05-03 21:25 | 36.16215 | -78.22831 | 30114 ft | 339 kts | 262° |
| 2026-05-03 21:25 | 36.15429 | -78.28588 | 30113 ft | 340 kts | 262° |
| 2026-05-03 21:26 | 36.14639 | -78.34374 | 30117 ft | 341 kts | 262° |
| 2026-05-03 21:26 | 36.13838 | -78.40161 | 30106 ft | 342 kts | 262° |
| 2026-05-03 21:27 | 36.13033 | -78.45920 | 30106 ft | 343 kts | 262° |
| 2026-05-03 21:27 | 36.12214 | -78.51745 | 30105 ft | 344 kts | 262° |
| 2026-05-03 21:28 | 36.11392 | -78.57569 | 30105 ft | 344 kts | 262° |
| 2026-05-03 21:28 | 36.10565 | -78.63398 | 30101 ft | 345 kts | 262° |
| 2026-05-03 21:29 | 36.09735 | -78.69238 | 30100 ft | 344 kts | 262° |
| 2026-05-03 21:29 | 36.08902 | -78.75071 | 30101 ft | 345 kts | 262° |
| 2026-05-03 21:30 | 36.08065 | -78.80914 | 30103 ft | 345 kts | 262° |
| 2026-05-03 21:30 | 36.07225 | -78.86760 | 30106 ft | 345 kts | 262° |
| 2026-05-03 21:31 | 36.06381 | -78.92610 | 30101 ft | 346 kts | 262° |
| 2026-05-03 21:31 | 36.05533 | -78.98462 | 30109 ft | 346 kts | 262° |
| 2026-05-03 21:32 | 36.04680 | -79.04331 | 30099 ft | 347 kts | 262° |
| 2026-05-03 21:32 | 36.03824 | -79.10199 | 30099 ft | 348 kts | 262° |
| 2026-05-03 21:33 | 36.02962 | -79.16084 | 30097 ft | 348 kts | 262° |
| 2026-05-03 21:33 | 36.02101 | -79.21941 | 30089 ft | 349 kts | 262° |
| 2026-05-03 21:34 | 36.01235 | -79.27825 | 30080 ft | 342 kts | 262° |
| 2026-05-03 21:34 | 36.00815 | -79.30657 | 30075 ft | 329 kts | 262° |
| 2026-05-03 21:34 | 36.00409 | -79.33403 | 29874 ft | 323 kts | 262° |
| 2026-05-03 21:35 | 36.00010 | -79.36096 | 29651 ft | 315 kts | 262° |
| 2026-05-03 21:35 | 35.99616 | -79.38752 | 29309 ft | 312 kts | 262° |
| 2026-05-03 21:35 | 35.99225 | -79.41381 | 28906 ft | 311 kts | 262° |
| 2026-05-03 21:35 | 35.98863 | -79.43999 | 28533 ft | 308 kts | 264° |
| 2026-05-03 21:36 | 35.98624 | -79.46635 | 28138 ft | 312 kts | 266° |
| 2026-05-03 21:36 | 35.98423 | -79.49327 | 27744 ft | 316 kts | 266° |
| 2026-05-03 21:36 | 35.98222 | -79.52021 | 27332 ft | 314 kts | 266° |
| 2026-05-03 21:36 | 35.98015 | -79.54689 | 26939 ft | 311 kts | 266° |
| 2026-05-03 21:37 | 35.97802 | -79.57337 | 26553 ft | 309 kts | 266° |
| 2026-05-03 21:37 | 35.97588 | -79.59965 | 26177 ft | 307 kts | 266° |
| 2026-05-03 21:37 | 35.97381 | -79.62579 | 25785 ft | 305 kts | 266° |
| 2026-05-03 21:37 | 35.97179 | -79.65173 | 25412 ft | 303 kts | 266° |
| 2026-05-03 21:38 | 35.96978 | -79.67751 | 25039 ft | 300 kts | 266° |
| 2026-05-03 21:38 | 35.96781 | -79.70277 | 24679 ft | 298 kts | 266° |
| 2026-05-03 21:38 | 35.96580 | -79.72857 | 24305 ft | 298 kts | 267° |
| 2026-05-03 21:38 | 35.96384 | -79.75363 | 23947 ft | 297 kts | 267° |
| 2026-05-03 21:39 | 35.96185 | -79.77902 | 23581 ft | 297 kts | 267° |
| 2026-05-03 21:39 | 35.95985 | -79.80443 | 23213 ft | 298 kts | 267° |
| 2026-05-03 21:39 | 35.95701 | -79.82991 | 22950 ft | 301 kts | 263° |
| 2026-05-03 21:39 | 35.95260 | -79.85542 | 22708 ft | 306 kts | 261° |
| 2026-05-03 21:40 | 35.94780 | -79.88103 | 22458 ft | 306 kts | 261° |
| 2026-05-03 21:40 | 35.94300 | -79.90648 | 22210 ft | 304 kts | 261° |
| 2026-05-03 21:40 | 35.93827 | -79.93193 | 21972 ft | 304 kts | 261° |
| 2026-05-03 21:40 | 35.93361 | -79.95733 | 21732 ft | 303 kts | 261° |
| 2026-05-03 21:41 | 35.92898 | -79.98273 | 21490 ft | 302 kts | 261° |
| 2026-05-03 21:41 | 35.92441 | -80.00800 | 21262 ft | 302 kts | 261° |
| 2026-05-03 21:41 | 35.91986 | -80.03325 | 21025 ft | 302 kts | 262° |
| 2026-05-03 21:41 | 35.91529 | -80.05862 | 20789 ft | 302 kts | 262° |
| 2026-05-03 21:42 | 35.91073 | -80.08397 | 20553 ft | 303 kts | 262° |
| 2026-05-03 21:42 | 35.90616 | -80.10934 | 20311 ft | 303 kts | 262° |
| 2026-05-03 21:42 | 35.90157 | -80.13475 | 20073 ft | 303 kts | 262° |
| 2026-05-03 21:42 | 35.89698 | -80.16012 | 19834 ft | 303 kts | 262° |
| 2026-05-03 21:43 | 35.89238 | -80.18555 | 19601 ft | 303 kts | 262° |
| 2026-05-03 21:43 | 35.88760 | -80.21056 | 19361 ft | 305 kts | 259° |
| 2026-05-03 21:43 | 35.88134 | -80.23560 | 19125 ft | 306 kts | 257° |
| 2026-05-03 21:43 | 35.87458 | -80.26046 | 18886 ft | 306 kts | 256° |
| 2026-05-03 21:44 | 35.86778 | -80.28537 | 18643 ft | 306 kts | 257° |
| 2026-05-03 21:44 | 35.86109 | -80.31022 | 18405 ft | 306 kts | 257° |
| 2026-05-03 21:44 | 35.85447 | -80.33514 | 18165 ft | 306 kts | 257° |
| 2026-05-03 21:44 | 35.84790 | -80.36002 | 17903 ft | 306 kts | 257° |
| 2026-05-03 21:45 | 35.84129 | -80.38505 | 17611 ft | 306 kts | 257° |
| 2026-05-03 21:45 | 35.83326 | -80.40935 | 17339 ft | 310 kts | 243° |
| 2026-05-03 21:45 | 35.81920 | -80.42961 | 17124 ft | 313 kts | 227° |
| 2026-05-03 21:45 | 35.80141 | -80.44520 | 16866 ft | 314 kts | 219° |
| 2026-05-03 21:46 | 35.78297 | -80.45936 | 16606 ft | 310 kts | 218° |
| 2026-05-03 21:46 | 35.76471 | -80.47327 | 16371 ft | 307 kts | 218° |
| 2026-05-03 21:46 | 35.74662 | -80.48726 | 16129 ft | 306 kts | 219° |
| 2026-05-03 21:46 | 35.72866 | -80.50134 | 15890 ft | 305 kts | 219° |
| 2026-05-03 21:47 | 35.71081 | -80.51541 | 15652 ft | 304 kts | 219° |
| 2026-05-03 21:47 | 35.69303 | -80.52946 | 15418 ft | 303 kts | 219° |
| 2026-05-03 21:47 | 35.67525 | -80.54324 | 15189 ft | 301 kts | 218° |
| 2026-05-03 21:47 | 35.65741 | -80.55676 | 14938 ft | 301 kts | 218° |
| 2026-05-03 21:48 | 35.63957 | -80.57024 | 14696 ft | 301 kts | 218° |
| 2026-05-03 21:48 | 35.62177 | -80.58371 | 14463 ft | 300 kts | 218° |
| 2026-05-03 21:48 | 35.60406 | -80.59712 | 14248 ft | 299 kts | 218° |
| 2026-05-03 21:48 | 35.58659 | -80.61037 | 14006 ft | 298 kts | 217° |
| 2026-05-03 21:49 | 35.56892 | -80.62375 | 13763 ft | 298 kts | 218° |
| 2026-05-03 21:49 | 35.55128 | -80.63711 | 13537 ft | 297 kts | 218° |
| 2026-05-03 21:49 | 35.53367 | -80.65039 | 13313 ft | 296 kts | 217° |
| 2026-05-03 21:49 | 35.51609 | -80.66350 | 13081 ft | 295 kts | 217° |
| 2026-05-03 21:50 | 35.49853 | -80.67657 | 12854 ft | 295 kts | 217° |
| 2026-05-03 21:50 | 35.48102 | -80.68962 | 12629 ft | 294 kts | 217° |
| 2026-05-03 21:50 | 35.46352 | -80.70265 | 12397 ft | 294 kts | 217° |
| 2026-05-03 21:50 | 35.44604 | -80.71567 | 12174 ft | 294 kts | 217° |
| 2026-05-03 21:51 | 35.42862 | -80.72863 | 11947 ft | 293 kts | 217° |
| 2026-05-03 21:51 | 35.41119 | -80.74160 | 11724 ft | 293 kts | 216° |
| 2026-05-03 21:51 | 35.39379 | -80.75453 | 11495 ft | 292 kts | 216° |
| 2026-05-03 21:51 | 35.37645 | -80.76742 | 11263 ft | 290 kts | 216° |
| 2026-05-03 21:52 | 35.35933 | -80.78013 | 11034 ft | 286 kts | 216° |
| 2026-05-03 21:52 | 35.34266 | -80.79249 | 10810 ft | 282 kts | 215° |
| 2026-05-03 21:52 | 35.33141 | -80.80085 | 10673 ft | 278 kts | 215° |
| 2026-05-03 21:52 | 35.30949 | -80.81710 | 10351 ft | 271 kts | 215° |
| 2026-05-03 21:53 | 35.29372 | -80.82875 | 10106 ft | 264 kts | 214° |
| 2026-05-03 21:53 | 35.27669 | -80.83628 | 9860 ft | 263 kts | 188° |
| 2026-05-03 21:53 | 35.25861 | -80.83611 | 9665 ft | 257 kts | 180° |
| 2026-05-03 21:53 | 35.24103 | -80.83454 | 9478 ft | 249 kts | 179° |
| 2026-05-03 21:54 | 35.22942 | -80.83343 | 9274 ft | 247 kts | 178° |
| 2026-05-03 21:54 | 35.21266 | -80.83185 | 9064 ft | 243 kts | 178° |
| 2026-05-03 21:54 | 35.19583 | -80.83031 | 8842 ft | 242 kts | 178° |
| 2026-05-03 21:54 | 35.17903 | -80.82885 | 8624 ft | 241 kts | 178° |
| 2026-05-03 21:55 | 35.16237 | -80.82739 | 8360 ft | 239 kts | 178° |
| 2026-05-03 21:55 | 35.14576 | -80.82597 | 7996 ft | 239 kts | 178° |
| 2026-05-03 21:55 | 35.12914 | -80.82458 | 7586 ft | 240 kts | 179° |
| 2026-05-03 21:55 | 35.11185 | -80.82299 | 6763 ft | 259 kts | 176° |
| 2026-05-03 21:56 | 35.09411 | -80.82079 | 6556 ft | 250 kts | 176° |
| 2026-05-03 21:56 | 35.07727 | -80.81859 | 6435 ft | 237 kts | 176° |
| 2026-05-03 21:56 | 35.06099 | -80.81641 | 6204 ft | 235 kts | 176° |
| 2026-05-03 21:56 | 35.04483 | -80.81422 | 6005 ft | 233 kts | 176° |
| 2026-05-03 21:57 | 35.02876 | -80.81202 | 5776 ft | 232 kts | 176° |
| 2026-05-03 21:57 | 35.01278 | -80.81022 | 5531 ft | 230 kts | 185° |
| 2026-05-03 21:57 | 34.99790 | -80.81568 | 5239 ft | 223 kts | 218° |
| 2026-05-03 21:57 | 34.98834 | -80.82990 | 4942 ft | 218 kts | 251° |
| 2026-05-03 21:58 | 34.98486 | -80.84758 | 4664 ft | 218 kts | 261° |
| 2026-05-03 21:58 | 34.98240 | -80.86611 | 4418 ft | 217 kts | 262° |
| 2026-05-03 21:58 | 34.98017 | -80.88387 | 4338 ft | 205 kts | 262° |
| 2026-05-03 21:58 | 34.98058 | -80.90047 | 4166 ft | 193 kts | 294° |
| 2026-05-03 21:59 | 34.98960 | -80.91109 | 4051 ft | 179 kts | 340° |
| 2026-05-03 21:59 | 35.00116 | -80.91412 | 3916 ft | 162 kts | 345° |
| 2026-05-03 21:59 | 35.01186 | -80.91656 | 3622 ft | 152 kts | 348° |
| 2026-05-03 21:59 | 35.02227 | -80.91818 | 3165 ft | 150 kts | 351° |
| 2026-05-03 22:00 | 35.03273 | -80.91940 | 2687 ft | 151 kts | 353° |
| 2026-05-03 22:00 | 35.04319 | -80.92044 | 2521 ft | 152 kts | 352° |
| 2026-05-03 22:00 | 35.05384 | -80.92175 | 2507 ft | 155 kts | 354° |
| 2026-05-03 22:00 | 35.06450 | -80.92236 | 2484 ft | 151 kts | 356° |
| 2026-05-03 22:01 | 35.07481 | -80.92290 | 2461 ft | 149 kts | 352° |
| 2026-05-03 22:01 | 35.08531 | -80.92403 | 2463 ft | 151 kts | 352° |
| 2026-05-03 22:01 | 35.09566 | -80.92459 | 2467 ft | 152 kts | 354° |
| 2026-05-03 22:01 | 35.10608 | -80.92576 | 2443 ft | 148 kts | 352° |
| 2026-05-03 22:02 | 35.11637 | -80.92680 | 2412 ft | 152 kts | 353° |
| 2026-05-03 22:02 | 35.12704 | -80.92773 | 2208 ft | 153 kts | 353° |
| 2026-05-03 22:02 | 35.13751 | -80.92864 | 2013 ft | 149 kts | 353° |
| 2026-05-03 22:02 | 35.14784 | -80.92954 | 1818 ft | 148 kts | 353° |
| 2026-05-03 22:03 | 35.15809 | -80.93042 | 1621 ft | 147 kts | 353° |
| 2026-05-03 22:03 | 35.16833 | -80.93131 | 1431 ft | 148 kts | 353° |
| 2026-05-03 22:03 | 35.17862 | -80.93219 | 1239 ft | 148 kts | 353° |
| 2026-05-03 22:03 | 35.18886 | -80.93308 | 1036 ft | 147 kts | 354° |
| 2026-05-03 22:04 | 35.19904 | -80.93395 | 830 ft | 147 kts | 354° |
| 2026-05-03 22:04 | 35.20907 | -80.93484 | 733 ft | 135 kts | 356° |
| 2026-05-03 22:04 | 35.21693 | -80.93551 | 734 ft | 91 kts | 356° |
| 2026-05-03 22:04 | 35.22020 | -80.93588 | 735 ft | 12 kts | 333° |
| 2026-05-03 22:05 | 35.22095 | -80.93646 | 732 ft | 13 kts | 325° |
| 2026-05-03 22:05 | 35.22167 | -80.93709 | 732 ft | 12 kts | 320° |
| 2026-05-03 22:05 | 35.22190 | -80.93759 | 732 ft | 1 kts | 283° |
| 2026-05-03 22:05 | 35.22192 | -80.93767 | 732 ft | 1 kts | 284° |
| 2026-05-03 22:06 | 35.22217 | -80.93809 | 731 ft | 8 kts | 332° |
| 2026-05-03 22:06 | 35.22273 | -80.93824 | 731 ft | 9 kts | 352° |
| 2026-05-03 22:06 | 35.22324 | -80.93832 | 732 ft | 0 kts | 332° |
| 2026-05-03 22:06 | 35.22321 | -80.93859 | 731 ft | 8 kts | 193° |
| 2026-05-03 22:07 | 35.22225 | -80.93840 | 731 ft | 16 kts | 169° |
| 2026-05-03 22:07 | 35.22120 | -80.93819 | 731 ft | 15 kts | 176° |
| 2026-05-03 22:07 | 35.22020 | -80.93833 | 731 ft | 14 kts | 201° |
| 2026-05-03 22:07 | 35.21941 | -80.93901 | 731 ft | 14 kts | 219° |
| 2026-05-03 22:08 | 35.21877 | -80.93982 | 731 ft | 13 kts | 253° |
| 2026-05-03 22:08 | 35.21829 | -80.94071 | 731 ft | 13 kts | 222° |
| 2026-05-03 22:08 | 35.21821 | -80.94080 | 731 ft | 1 kts | 222° |
| 2026-05-03 22:08 | 35.21814 | -80.94087 | 731 ft | 1 kts | 216° |
| 2026-05-03 22:09 | 35.21801 | -80.94099 | 730 ft | 0 kts | 221° |
| 2026-05-03 22:09 | 35.21801 | -80.94100 | 731 ft | 1 kts | 221° |
| 2026-05-03 22:09 | 35.21791 | -80.94127 | 731 ft | 4 kts | 265° |
| 2026-05-03 22:10 | 35.21793 | -80.94156 | 731 ft | 2 kts | 281° |
| 2026-05-03 22:10 | 35.21794 | -80.94159 | 731 ft | 0 kts | 281° |